Terminal Aerodrome Forecast
Issued by NWS Boston, MA

Home | Current Version | Previous Version | Text Only | Print | Product List | Glossary On
Versions: 1 2 3 4 5 6 7 8 9 10 11 12 13 14 15 16 17 18 19 20 21 22 23 24
000
FTUS41 KBOX 261725
TAFPVD
TAF
KPVD 261725Z 2618/2718 09008KT P6SM OVC060
     FM270500 11007KT P6SM -RA OVC035
     FM270800 11007KT 6SM -RA BR OVC015
     FM271600 15007KT 2SM -RA BR OVC008=

USA.gov is the U.S. government's official web portal to all federal, state and local government web resources and services.